Time;durP1;ratioP1;P1;durP2;ratioP2;P2;SDS_P1;SDS_P2;PMS_P1;PMS_P2;Temp;Humidity;BMP_temperature;BMP_pressure;BME280_temperature;BME280_humidity;BME280_pressure;Samples;Min_cycle;Max_cycle;Signal;HPM_P1;HPM_P2
2020/12/05 00:00:33;;;;;;;4.90;1.58;;;9.90;88.10;;;;;;5076269;28;20036;-59
2020/12/05 00:02:59;;;;;;;6.95;1.65;;;9.90;87.70;;;;;;5076143;28;20151;-59
2020/12/05 00:05:25;;;;;;;4.78;1.80;;;9.90;88.20;;;;;;5076322;28;20036;-58
2020/12/05 00:07:51;;;;;;;4.22;1.77;;;9.80;87.70;;;;;;5076088;28;20414;-59
2020/12/05 00:10:17;;;;;;;4.57;1.80;;;9.90;87.10;;;;;;5076097;28;20386;-59
2020/12/05 00:12:42;;;;;;;4.28;1.88;;;9.90;86.50;;;;;;5075976;28;20119;-59
2020/12/05 00:15:08;;;;;;;4.80;1.83;;;9.90;86.90;;;;;;5075932;28;20028;-59
2020/12/05 00:17:34;;;;;;;3.90;1.52;;;9.90;86.80;;;;;;5075829;28;20021;-59
2020/12/05 00:20:00;;;;;;;2.53;1.27;;;9.90;87.00;;;;;;5075949;28;20028;-59
2020/12/05 00:22:27;;;;;;;5.07;1.70;;;9.90;86.00;;;;;;5075893;28;20029;-59
2020/12/05 00:24:53;;;;;;;6.20;1.95;;;9.90;85.50;;;;;;5075972;28;20067;-59
2020/12/05 00:27:20;;;;;;;7.68;1.88;;;9.90;85.30;;;;;;5075803;28;20056;-59
2020/12/05 00:29:47;;;;;;;6.05;2.00;;;10.00;85.00;;;;;;5075932;28;20432;-58
2020/12/05 00:32:14;;;;;;;4.80;1.60;;;10.00;84.40;;;;;;5075732;28;20028;-59
2020/12/05 00:34:40;;;;;;;7.15;1.85;;;10.00;84.30;;;;;;5075111;28;20517;-59
2020/12/05 00:37:05;;;;;;;4.10;1.45;;;10.00;83.80;;;;;;5074284;28;20355;-58
2020/12/05 00:39:31;;;;;;;3.47;1.40;;;10.00;84.60;;;;;;5075781;28;20040;-59
2020/12/05 00:41:57;;;;;;;5.30;1.55;;;10.00;85.30;;;;;;5075369;28;20540;-59
2020/12/05 00:44:23;;;;;;;6.50;1.73;;;10.00;86.20;;;;;;5075419;28;20077;-59
2020/12/05 00:46:49;;;;;;;5.10;1.77;;;10.00;86.30;;;;;;5075310;28;20485;-59
2020/12/05 00:49:15;;;;;;;5.65;2.15;;;10.00;87.30;;;;;;5075015;28;20040;-59
2020/12/05 00:51:41;;;;;;;5.30;2.20;;;10.00;87.90;;;;;;5075399;28;20036;-59
2020/12/05 00:54:07;;;;;;;2.72;1.48;;;10.00;88.50;;;;;;5075171;28;20032;-59
2020/12/05 00:56:33;;;;;;;4.47;1.77;;;10.00;88.70;;;;;;5075177;28;20111;-58
2020/12/05 00:58:58;;;;;;;4.63;1.70;;;10.00;90.30;;;;;;5075114;28;20389;-59
2020/12/05 01:01:24;;;;;;;6.65;2.08;;;10.00;90.40;;;;;;5074988;28;20020;-59
2020/12/05 01:03:50;;;;;;;6.35;2.42;;;10.00;91.10;;;;;;5075129;28;20067;-59
2020/12/05 01:06:16;;;;;;;6.78;3.13;;;10.00;91.50;;;;;;5074931;28;20029;-59
2020/12/05 01:08:44;;;;;;;7.18;2.22;;;10.00;91.80;;;;;;5074910;28;20042;-59
2020/12/05 01:11:18;;;;;;;9.02;2.13;;;10.00;92.40;;;;;;5074899;28;20469;-59
2020/12/05 01:13:45;;;;;;;8.75;1.80;;;10.00;92.70;;;;;;5075202;28;20031;-59
2020/12/05 01:16:17;;;;;;;7.05;1.73;;;10.00;93.20;;;;;;5074835;28;20021;-59
2020/12/05 01:18:44;;;;;;;6.35;1.92;;;10.00;93.40;;;;;;5075288;28;20470;-58
2020/12/05 01:21:12;;;;;;;7.75;1.58;;;10.00;93.30;;;;;;5075102;28;20426;-58
2020/12/05 01:23:39;;;;;;;4.80;1.40;;;10.00;93.70;;;;;;5074635;28;20513;-59
2020/12/05 01:26:06;;;;;;;6.07;1.70;;;10.10;94.30;;;;;;5074620;28;20023;-59
2020/12/05 01:28:32;;;;;;;7.90;1.40;;;10.00;94.30;;;;;;5074602;28;20085;-59
2020/12/05 01:30:59;;;;;;;6.18;1.17;;;10.10;94.50;;;;;;5074434;28;20363;-59
2020/12/05 01:33:25;;;;;;;4.70;1.55;;;10.10;94.40;;;;;;5074356;28;20035;-59
2020/12/05 01:35:51;;;;;;;11.43;1.67;;;10.10;94.90;;;;;;5074337;28;20108;-59
2020/12/05 01:38:17;;;;;;;7.47;1.40;;;10.10;95.50;;;;;;5074369;28;20020;-59
2020/12/05 01:40:53;;;;;;;8.65;1.35;;;10.10;95.80;;;;;;5074316;28;20040;-59
2020/12/05 01:43:19;;;;;;;9.15;1.40;;;10.10;95.80;;;;;;5074522;28;20158;-59
2020/12/05 01:45:47;;;;;;;9.65;1.77;;;10.10;96.20;;;;;;5073494;28;20024;-59
2020/12/05 01:48:18;;;;;;;11.43;1.90;;;10.20;96.30;;;;;;5074122;28;20481;-59
2020/12/05 01:50:45;;;;;;;10.50;1.67;;;10.20;96.40;;;;;;5072772;28;20516;-59
2020/12/05 01:53:14;;;;;;;5.45;1.20;;;10.30;96.50;;;;;;5074057;28;21032;-59
2020/12/05 01:55:47;;;;;;;6.20;1.20;;;10.30;97.00;;;;;;5073956;28;20020;-59
2020/12/05 01:58:14;;;;;;;9.82;1.40;;;10.40;97.20;;;;;;5074007;28;20110;-59
2020/12/05 02:00:41;;;;;;;10.95;1.65;;;10.40;97.50;;;;;;5073899;28;20078;-59
2020/12/05 02:03:07;;;;;;;9.80;1.55;;;10.40;97.60;;;;;;5074130;28;20025;-59
2020/12/05 02:05:48;;;;;;;13.73;2.15;;;10.40;98.00;;;;;;5074061;28;20025;-59
2020/12/05 02:08:25;;;;;;;6.65;1.50;;;10.30;98.10;;;;;;5073677;28;20120;-59
2020/12/05 02:10:51;;;;;;;6.40;1.52;;;10.30;98.40;;;;;;5073649;28;20070;-59
2020/12/05 02:13:28;;;;;;;8.82;1.65;;;10.30;98.40;;;;;;5073569;28;20040;-59
2020/12/05 02:15:55;;;;;;;6.32;1.35;;;10.40;98.20;;;;;;5073715;28;20480;-59
2020/12/05 02:18:22;;;;;;;7.03;0.90;;;10.40;98.40;;;;;;5073531;28;20017;-59
2020/12/05 02:20:51;;;;;;;7.72;1.38;;;10.40;98.50;;;;;;5073605;28;20028;-59
2020/12/05 02:23:19;;;;;;;4.97;1.10;;;10.40;98.80;;;;;;5073549;28;20027;-59
2020/12/05 02:25:46;;;;;;;6.45;1.38;;;10.40;98.50;;;;;;5073486;28;20029;-59
2020/12/05 02:28:15;;;;;;;12.30;1.60;;;10.40;98.70;;;;;;5073391;28;20047;-59
2020/12/05 02:30:41;;;;;;;9.07;1.77;;;10.50;98.80;;;;;;5073325;28;20402;-59
2020/12/05 02:33:07;;;;;;;8.40;1.50;;;10.50;99.00;;;;;;5073383;28;20031;-59
2020/12/05 02:35:34;;;;;;;9.05;1.42;;;10.50;99.00;;;;;;5073203;28;20442;-59
2020/12/05 02:38:18;;;;;;;7.00;1.15;;;10.50;98.70;;;;;;5073719;28;20051;-58
2020/12/05 02:40:44;;;;;;;6.93;1.00;;;10.60;98.20;;;;;;5073612;28;20020;-59
2020/12/05 02:43:11;;;;;;;8.15;1.50;;;10.60;98.70;;;;;;5073196;28;20024;-59
2020/12/05 02:45:39;;;;;;;5.20;1.20;;;10.60;98.90;;;;;;5073173;28;20028;-59
2020/12/05 02:48:08;;;;;;;8.27;1.02;;;10.60;98.90;;;;;;5073167;28;20489;-59
2020/12/05 02:50:35;;;;;;;7.90;1.42;;;10.60;99.00;;;;;;5072920;28;20093;-59
2020/12/05 02:53:01;;;;;;;10.32;1.20;;;10.60;99.10;;;;;;5073487;28;20098;-59
2020/12/05 02:55:27;;;;;;;7.70;0.95;;;10.50;99.20;;;;;;5073190;28;20024;-59
2020/12/05 02:57:53;;;;;;;9.02;1.60;;;10.60;99.20;;;;;;5072964;28;20043;-59
2020/12/05 03:00:19;;;;;;;6.60;1.10;;;10.60;99.20;;;;;;5072961;28;20099;-59
2020/12/05 03:02:44;;;;;;;8.27;1.17;;;10.60;99.10;;;;;;5072995;28;20032;-59
2020/12/05 03:05:10;;;;;;;7.40;1.15;;;10.60;99.30;;;;;;5072927;28;20024;-59
2020/12/05 03:07:36;;;;;;;6.22;1.20;;;10.60;99.50;;;;;;5073499;28;20036;-59
2020/12/05 03:10:03;;;;;;;4.88;1.20;;;10.70;99.20;;;;;;5073523;28;20389;-59
2020/12/05 03:12:28;;;;;;;10.40;1.08;;;10.80;99.20;;;;;;5073269;28;20429;-59
2020/12/05 03:14:54;;;;;;;7.63;1.20;;;10.70;99.20;;;;;;5072915;28;20063;-59
2020/12/05 03:17:20;;;;;;;9.98;1.40;;;10.70;99.30;;;;;;5073148;28;20130;-59
2020/12/05 03:19:46;;;;;;;7.45;1.20;;;10.70;99.40;;;;;;5072811;28;20478;-58
2020/12/05 03:22:12;;;;;;;5.00;0.95;;;10.70;99.40;;;;;;5073179;28;20028;-59
2020/12/05 03:24:38;;;;;;;6.20;1.08;;;10.70;99.70;;;;;;5072861;28;20484;-59
2020/12/05 03:27:04;;;;;;;13.25;1.38;;;10.80;99.90;;;;;;5072908;28;20110;-59
2020/12/05 03:29:30;;;;;;;9.13;1.55;;;10.70;99.90;;;;;;5072878;28;20073;-59
2020/12/05 03:32:00;;;;;;;7.47;1.17;;;10.70;99.90;;;;;;5072676;28;20103;-59
2020/12/05 03:34:26;;;;;;;5.35;0.93;;;10.80;99.90;;;;;;5072756;28;20021;-59
2020/12/05 03:36:52;;;;;;;8.73;1.73;;;10.70;99.90;;;;;;5072675;28;20085;-59
2020/12/05 03:39:18;;;;;;;9.73;1.20;;;10.70;99.90;;;;;;5072963;28;20029;-59
2020/12/05 03:41:44;;;;;;;11.15;1.52;;;10.70;99.90;;;;;;5072691;28;20100;-59
2020/12/05 03:44:10;;;;;;;7.90;1.60;;;10.70;99.90;;;;;;5072898;28;20386;-59
2020/12/05 03:46:35;;;;;;;8.98;1.50;;;10.70;99.90;;;;;;5072470;28;20027;-59
2020/12/05 03:49:02;;;;;;;8.85;1.38;;;10.80;99.90;;;;;;5071269;28;20044;-59
2020/12/05 03:51:28;;;;;;;6.10;1.27;;;10.80;99.90;;;;;;5072541;28;20116;-59
2020/12/05 03:53:54;;;;;;;15.05;1.70;;;10.80;99.90;;;;;;5072576;28;20107;-59
2020/12/05 03:56:20;;;;;;;9.90;1.58;;;10.80;99.90;;;;;;5072434;28;20032;-59
2020/12/05 03:58:45;;;;;;;8.07;1.13;;;10.90;99.90;;;;;;5072770;28;20081;-59
2020/12/05 04:01:11;;;;;;;14.18;1.80;;;10.90;99.90;;;;;;5072321;28;20108;-59
2020/12/05 04:03:37;;;;;;;11.88;2.15;;;10.90;99.90;;;;;;5072736;28;20032;-59
2020/12/05 04:06:04;;;;;;;11.27;1.48;;;10.90;99.90;;;;;;5072820;28;20021;-59
2020/12/05 04:08:29;;;;;;;11.32;2.00;;;10.90;99.90;;;;;;5073047;28;20032;-59
2020/12/05 04:10:56;;;;;;;14.18;1.90;;;10.90;99.90;;;;;;5076306;28;20031;-59
2020/12/05 04:13:22;;;;;;;13.60;1.85;;;11.00;99.90;;;;;;5076243;28;20029;-59
2020/12/05 04:15:48;;;;;;;17.23;2.75;;;11.10;99.90;;;;;;5076194;28;20509;-59
2020/12/05 04:18:15;;;;;;;10.82;1.90;;;11.10;99.90;;;;;;5075921;28;20035;-59
2020/12/05 04:20:42;;;;;;;11.10;1.38;;;11.10;99.90;;;;;;5075745;28;20033;-59
2020/12/05 04:23:08;;;;;;;12.77;2.17;;;11.10;99.90;;;;;;5075946;28;20066;-59
2020/12/05 04:25:34;;;;;;;11.52;2.53;;;11.20;99.90;;;;;;5076027;28;20405;-59
2020/12/05 04:28:00;;;;;;;16.42;2.20;;;11.10;99.90;;;;;;5075957;28;20549;-59
2020/12/05 04:30:25;;;;;;;14.05;1.83;;;11.10;99.90;;;;;;5075648;28;20461;-59
2020/12/05 04:32:51;;;;;;;13.50;1.80;;;11.10;99.90;;;;;;5075707;28;20024;-58
2020/12/05 04:35:17;;;;;;;7.07;1.67;;;11.10;99.90;;;;;;5075549;28;20028;-58
2020/12/05 04:37:43;;;;;;;17.73;2.47;;;11.10;99.90;;;;;;5075609;28;20021;-58
2020/12/05 04:40:09;;;;;;;17.23;4.10;;;11.10;99.90;;;;;;5075560;28;20020;-59
2020/12/05 04:42:45;;;;;;;22.10;6.00;;;11.10;99.90;;;;;;5075502;28;20051;-58
2020/12/05 04:45:11;;;;;;;20.50;3.00;;;11.10;99.90;;;;;;5075403;28;20029;-59
2020/12/05 04:47:40;;;;;;;13.07;2.17;;;11.20;99.90;;;;;;5075672;28;20044;-59
2020/12/05 04:50:06;;;;;;;13.02;2.22;;;11.20;99.90;;;;;;5075110;28;20060;-59
2020/12/05 04:52:40;;;;;;;18.95;1.90;;;11.20;99.90;;;;;;5075336;28;20029;-59
2020/12/05 04:55:07;;;;;;;16.27;2.42;;;11.10;99.90;;;;;;5075304;28;20054;-59
2020/12/05 04:57:45;;;;;;;13.20;1.70;;;11.10;99.90;;;;;;5075241;28;20397;-59
2020/12/05 05:00:12;;;;;;;13.13;1.80;;;11.10;99.90;;;;;;5075458;28;20024;-59
2020/12/05 05:02:43;;;;;;;15.80;1.83;;;11.10;99.90;;;;;;5075085;28;20029;-59
2020/12/05 05:05:14;;;;;;;14.13;2.20;;;11.10;99.90;;;;;;5075162;28;20474;-59
2020/12/05 05:07:47;;;;;;;11.20;2.30;;;11.10;99.90;;;;;;5075022;28;20048;-59
2020/12/05 05:10:28;;;;;;;14.70;2.13;;;11.10;99.90;;;;;;5075271;28;20055;-59
2020/12/05 05:13:22;;;;;;;17.63;2.73;;;11.10;99.90;;;;;;5075006;28;20032;-59
2020/12/05 05:15:48;;;;;;;11.63;2.17;;;11.10;99.90;;;;;;5075202;28;20033;-59
2020/12/05 05:18:14;;;;;;;13.85;1.70;;;11.10;99.90;;;;;;5075124;28;20516;-59
2020/12/05 05:20:44;;;;;;;11.88;1.88;;;11.10;99.90;;;;;;5073581;28;20551;-59
2020/12/05 05:23:20;;;;;;;12.20;1.50;;;11.10;99.90;;;;;;5074766;28;20017;-59
2020/12/05 05:25:51;;;;;;;14.88;1.95;;;11.10;99.90;;;;;;5074629;28;20123;-59
2020/12/05 05:28:25;;;;;;;16.95;2.50;;;11.10;99.90;;;;;;5074484;28;20032;-59
2020/12/05 05:31:11;;;;;;;18.40;2.67;;;11.20;99.90;;;;;;5074843;28;20128;-59
2020/12/05 05:33:48;;;;;;;16.48;2.65;;;11.20;99.90;;;;;;5074421;28;20028;-59
2020/12/05 05:36:16;;;;;;;10.85;1.48;;;11.20;99.90;;;;;;5074441;28;20111;-59
2020/12/05 05:38:43;;;;;;;15.40;2.25;;;11.30;99.90;;;;;;5074616;28;20040;-59
2020/12/05 05:41:17;;;;;;;14.23;2.25;;;11.40;99.90;;;;;;5074431;28;20031;-59
2020/12/05 05:43:56;;;;;;;13.32;1.92;;;11.30;99.90;;;;;;5074615;28;20029;-59
2020/12/05 05:46:33;;;;;;;14.52;1.85;;;11.40;99.90;;;;;;5074304;28;20028;-59
2020/12/05 05:49:00;;;;;;;12.15;2.08;;;11.50;99.90;;;;;;5074215;28;20036;-59
2020/12/05 05:51:38;;;;;;;20.08;2.55;;;11.50;99.90;;;;;;5073983;28;20119;-59
2020/12/05 05:54:11;;;;;;;13.60;2.33;;;11.50;99.90;;;;;;5074160;28;20496;-59
2020/12/05 05:56:37;;;;;;;16.80;6.68;;;11.50;99.90;;;;;;5073896;28;20052;-59
2020/12/05 05:59:05;;;;;;;27.75;6.82;;;11.50;99.90;;;;;;5073897;28;20070;-59
2020/12/05 06:01:36;;;;;;;19.38;3.03;;;11.50;99.90;;;;;;5073902;28;20073;-59
2020/12/05 06:04:04;;;;;;;26.45;12.55;;;11.50;99.90;;;;;;5073907;28;20035;-59
2020/12/05 06:06:33;;;;;;;20.15;5.47;;;11.50;99.90;;;;;;5073745;28;20064;-59
2020/12/05 06:09:03;;;;;;;22.38;6.00;;;11.50;99.90;;;;;;5074096;28;20036;-59
2020/12/05 06:11:34;;;;;;;14.70;2.47;;;11.50;99.90;;;;;;5073684;28;20032;-59
2020/12/05 06:14:05;;;;;;;13.10;3.00;;;11.50;99.90;;;;;;5074100;28;20054;-59
2020/12/05 06:16:31;;;;;;;19.23;2.55;;;11.60;99.90;;;;;;5073910;28;20029;-59
2020/12/05 06:18:58;;;;;;;15.63;2.85;;;11.60;99.90;;;;;;5073584;28;20025;-59
2020/12/05 06:21:36;;;;;;;21.38;3.88;;;11.50;99.90;;;;;;5073569;28;20029;-59
2020/12/05 06:24:06;;;;;;;14.32;3.42;;;11.50;99.90;;;;;;5073550;28;20064;-59
2020/12/05 06:26:36;;;;;;;14.82;2.42;;;11.50;99.90;;;;;;5073390;28;20074;-59
2020/12/05 06:29:05;;;;;;;12.15;2.45;;;11.60;99.90;;;;;;5073703;28;20056;-59
2020/12/05 06:31:41;;;;;;;15.00;2.03;;;11.60;99.90;;;;;;5073179;28;20047;-59
2020/12/05 06:34:09;;;;;;;24.08;3.92;;;11.60;99.90;;;;;;5073340;28;20029;-60
2020/12/05 06:36:36;;;;;;;15.40;3.72;;;11.60;99.90;;;;;;5073380;28;20020;-59
2020/12/05 06:39:10;;;;;;;14.20;2.45;;;11.60;99.90;;;;;;5073221;28;20036;-59
2020/12/05 06:41:41;;;;;;;17.17;2.75;;;11.50;99.90;;;;;;5073171;28;20028;-59
2020/12/05 06:44:18;;;;;;;12.67;2.33;;;11.60;99.90;;;;;;5073470;28;20428;-60
2020/12/05 06:46:58;;;;;;;19.10;2.67;;;11.60;99.90;;;;;;5073408;28;20442;-60
2020/12/05 06:49:39;;;;;;;24.08;2.58;;;11.60;99.90;;;;;;5073089;28;20078;-59
2020/12/05 06:52:24;;;;;;;16.33;3.17;;;11.60;99.90;;;;;;5073183;28;20121;-60
2020/12/05 06:54:50;;;;;;;14.10;1.75;;;11.60;99.90;;;;;;5073039;28;20447;-59
2020/12/05 06:57:17;;;;;;;18.80;3.78;;;11.70;99.90;;;;;;5073032;28;20036;-59
2020/12/05 06:59:42;;;;;;;19.20;6.53;;;11.80;99.90;;;;;;5073161;28;20025;-59
2020/12/05 07:02:30;;;;;;;17.55;3.00;;;11.70;99.90;;;;;;5073033;28;20119;-59
2020/12/05 07:05:18;;;;;;;12.50;2.10;;;11.70;99.90;;;;;;5073335;28;20025;-59
2020/12/05 07:07:49;;;;;;;16.17;2.10;;;11.80;99.90;;;;;;5073204;28;20508;-60
2020/12/05 07:10:16;;;;;;;16.37;2.53;;;11.80;99.90;;;;;;5072934;28;20069;-60
2020/12/05 07:12:43;;;;;;;17.50;2.22;;;11.70;99.90;;;;;;5073371;28;20052;-59
2020/12/05 07:15:26;;;;;;;13.35;2.67;;;11.80;99.90;;;;;;5072959;28;20151;-59
2020/12/05 07:17:53;;;;;;;9.95;1.77;;;11.70;99.90;;;;;;5072969;28;20056;-59
2020/12/05 07:20:19;;;;;;;14.10;2.55;;;11.80;99.90;;;;;;5072830;28;20497;-59
2020/12/05 07:22:48;;;;;;;9.00;2.00;;;11.80;99.90;;;;;;5073227;28;20032;-59
2020/12/05 07:25:14;;;;;;;8.98;2.00;;;11.90;99.90;;;;;;5073090;28;20024;-59
2020/12/05 07:27:41;;;;;;;12.65;2.15;;;11.90;99.90;;;;;;5072743;28;20517;-59
2020/12/05 07:30:08;;;;;;;11.38;1.83;;;11.90;99.90;;;;;;5072818;28;20482;-58
2020/12/05 07:32:35;;;;;;;16.30;2.10;;;12.00;99.90;;;;;;5073039;28;20070;-59
2020/12/05 07:35:07;;;;;;;14.13;2.63;;;12.00;99.90;;;;;;5072648;28;20021;-58
2020/12/05 07:37:34;;;;;;;14.35;2.63;;;12.00;99.90;;;;;;5072751;28;20025;-58
2020/12/05 07:40:01;;;;;;;11.95;2.20;;;12.00;99.90;;;;;;5072777;28;20079;-58
2020/12/05 07:42:39;;;;;;;14.70;3.35;;;12.10;99.90;;;;;;5072761;28;20036;-58
2020/12/05 07:45:12;;;;;;;17.33;4.68;;;12.10;99.90;;;;;;5076115;28;20070;-58
2020/12/05 07:47:39;;;;;;;13.05;3.35;;;12.00;99.90;;;;;;5076674;28;20036;-58
2020/12/05 07:50:10;;;;;;;9.95;2.10;;;12.00;99.90;;;;;;5076517;28;20060;-60
2020/12/05 07:52:41;;;;;;;12.43;2.90;;;12.00;99.90;;;;;;5076496;28;20119;-60
2020/12/05 07:55:10;;;;;;;15.70;2.55;;;12.00;99.90;;;;;;5076301;28;20466;-60
2020/12/05 07:57:37;;;;;;;12.35;2.05;;;12.00;99.90;;;;;;5075111;28;20107;-60
2020/12/05 08:00:07;;;;;;;8.60;1.85;;;12.00;99.90;;;;;;5076575;28;20100;-59
2020/12/05 08:02:58;;;;;;;9.27;1.98;;;12.00;99.90;;;;;;5076548;28;20041;-59
2020/12/05 08:05:46;;;;;;;10.90;1.92;;;12.00;99.90;;;;;;5076162;28;20020;-60
2020/12/05 08:08:16;;;;;;;8.20;1.92;;;12.10;99.90;;;;;;5076185;28;20048;-59
2020/12/05 08:10:42;;;;;;;12.18;3.67;;;12.00;99.90;;;;;;5076045;28;20028;-59
2020/12/05 08:13:26;;;;;;;10.75;1.92;;;12.00;99.90;;;;;;5076040;28;20086;-60
2020/12/05 08:16:06;;;;;;;11.13;2.42;;;12.10;99.90;;;;;;5076247;28;20113;-59
2020/12/05 08:18:36;;;;;;;18.52;2.83;;;12.10;99.90;;;;;;5075919;28;20543;-59
2020/12/05 08:21:04;;;;;;;13.32;2.47;;;12.30;98.90;;;;;;5075936;28;20060;-59
2020/12/05 08:23:33;;;;;;;11.02;2.70;;;12.20;99.60;;;;;;5075845;28;20024;-59
2020/12/05 08:26:05;;;;;;;10.57;1.92;;;12.20;99.10;;;;;;5076440;28;20036;-60
2020/12/05 08:28:40;;;;;;;10.82;1.88;;;12.20;99.10;;;;;;5076065;28;20458;-60
2020/12/05 08:31:11;;;;;;;12.63;2.00;;;12.20;98.80;;;;;;5075796;28;20029;-60
2020/12/05 08:33:50;;;;;;;11.88;1.80;;;12.20;97.90;;;;;;5075741;28;20025;-60
2020/12/05 08:36:31;;;;;;;12.10;2.60;;;12.30;97.00;;;;;;5075867;28;20109;-60
2020/12/05 08:39:06;;;;;;;9.77;1.77;;;12.30;98.00;;;;;;5075785;28;20052;-60
2020/12/05 08:41:53;;;;;;;11.95;1.92;;;12.30;96.90;;;;;;5075547;28;20029;-60
2020/12/05 08:44:21;;;;;;;10.52;1.98;;;12.40;97.10;;;;;;5075636;28;20028;-59
2020/12/05 08:46:59;;;;;;;7.57;2.13;;;12.30;97.20;;;;;;5075418;28;20477;-60
2020/12/05 08:49:25;;;;;;;6.63;1.52;;;12.40;96.50;;;;;;5075231;28;20031;-59
2020/12/05 08:51:52;;;;;;;13.55;1.92;;;12.50;96.00;;;;;;5075451;28;20032;-60
2020/12/05 08:54:19;;;;;;;12.68;1.85;;;12.50;96.40;;;;;;5075033;28;20025;-59
2020/12/05 08:56:45;;;;;;;9.57;1.95;;;12.40;96.80;;;;;;5075359;28;20489;-60
2020/12/05 08:59:12;;;;;;;9.45;1.98;;;12.40;95.80;;;;;;5075529;28;20029;-60
2020/12/05 09:01:43;;;;;;;8.93;1.92;;;12.50;94.60;;;;;;5075643;28;20029;-60
2020/12/05 09:04:12;;;;;;;8.02;1.90;;;12.50;94.10;;;;;;5075110;28;20111;-60
2020/12/05 09:06:39;;;;;;;8.50;2.05;;;12.40;94.70;;;;;;5075097;28;20066;-60
2020/12/05 09:09:06;;;;;;;9.90;3.15;;;12.50;93.50;;;;;;5075079;28;20024;-60
2020/12/05 09:11:32;;;;;;;8.73;2.38;;;12.50;93.30;;;;;;5074991;28;20082;-59
2020/12/05 09:13:58;;;;;;;8.68;1.92;;;12.50;93.00;;;;;;5075423;28;20440;-60
2020/12/05 09:16:34;;;;;;;9.45;1.45;;;12.60;91.70;;;;;;5074828;28;20031;-60
2020/12/05 09:19:00;;;;;;;12.20;2.33;;;12.60;91.20;;;;;;5074783;28;20048;-60
2020/12/05 09:21:33;;;;;;;10.95;1.77;;;12.60;91.00;;;;;;5074774;28;20020;-60
2020/12/05 09:24:01;;;;;;;16.10;4.57;;;12.70;90.10;;;;;;5075030;28;20359;-60
2020/12/05 09:26:27;;;;;;;12.38;2.03;;;12.70;90.20;;;;;;5074662;28;20071;-60
2020/12/05 09:28:54;;;;;;;8.30;1.65;;;12.60;90.50;;;;;;5073497;28;20058;-60
2020/12/05 09:31:20;;;;;;;11.90;2.55;;;12.60;90.30;;;;;;5074663;28;20028;-60
2020/12/05 09:33:46;;;;;;;13.15;2.47;;;12.60;90.80;;;;;;5074323;28;20021;-60
2020/12/05 09:36:12;;;;;;;19.35;2.42;;;12.60;90.30;;;;;;5074573;28;20028;-60
2020/12/05 09:38:39;;;;;;;16.42;2.67;;;12.60;90.70;;;;;;5074449;28;20025;-60
2020/12/05 09:41:05;;;;;;;16.40;2.58;;;12.70;88.40;;;;;;5074648;28;20119;-60
2020/12/05 09:43:31;;;;;;;15.90;3.97;;;12.80;86.20;;;;;;5074308;28;20052;-60
2020/12/05 09:45:56;;;;;;;18.23;5.38;;;12.80;85.80;;;;;;5074468;28;20474;-60
2020/12/05 09:48:22;;;;;;;20.95;7.18;;;12.80;84.40;;;;;;5074057;28;20037;-60
2020/12/05 09:50:48;;;;;;;16.90;4.35;;;12.90;83.70;;;;;;5073995;28;20123;-60
2020/12/05 09:53:14;;;;;;;22.10;5.38;;;12.90;83.30;;;;;;5074275;28;20032;-60
2020/12/05 09:55:40;;;;;;;10.40;1.98;;;12.90;82.80;;;;;;5074203;28;20016;-60
2020/12/05 09:58:06;;;;;;;12.30;3.55;;;13.10;80.50;;;;;;5073878;28;20036;-59
2020/12/05 10:00:32;;;;;;;14.63;2.42;;;13.00;80.60;;;;;;5074039;28;20032;-60
2020/12/05 10:02:58;;;;;;;11.82;2.15;;;13.10;79.40;;;;;;5073925;28;20131;-60
2020/12/05 10:05:24;;;;;;;13.98;2.40;;;13.20;77.40;;;;;;5073989;28;20021;-60
2020/12/05 10:07:50;;;;;;;13.45;2.97;;;13.20;77.20;;;;;;5073339;28;20478;-60
2020/12/05 10:10:16;;;;;;;10.48;1.90;;;13.10;77.80;;;;;;5073760;28;20032;-60
2020/12/05 10:12:45;;;;;;;13.90;2.60;;;13.10;78.00;;;;;;5073664;28;20037;-60
2020/12/05 10:15:14;;;;;;;9.98;2.38;;;13.10;80.00;;;;;;5073695;28;20503;-60
2020/12/05 10:17:42;;;;;;;10.85;2.72;;;13.00;81.00;;;;;;5073611;28;20025;-60
2020/12/05 10:20:09;;;;;;;11.98;2.50;;;13.10;79.60;;;;;;5073695;28;20104;-60
2020/12/05 10:22:36;;;;;;;9.98;1.77;;;13.00;78.80;;;;;;5073522;28;20025;-60
2020/12/05 10:25:04;;;;;;;12.35;2.38;;;13.20;78.00;;;;;;5073574;28;20028;-59
2020/12/05 10:27:30;;;;;;;14.35;2.83;;;13.30;77.00;;;;;;5073457;28;20040;-60
2020/12/05 10:29:56;;;;;;;13.10;2.60;;;13.30;76.90;;;;;;5073589;28;20025;-60
2020/12/05 10:32:22;;;;;;;9.45;2.53;;;13.30;77.20;;;;;;5072229;28;20467;-60
2020/12/05 10:34:48;;;;;;;17.42;2.13;;;13.30;77.10;;;;;;5073323;28;20543;-60
2020/12/05 10:37:13;;;;;;;12.80;2.92;;;13.40;76.70;;;;;;5073388;28;20078;-60
2020/12/05 10:39:39;;;;;;;12.38;2.10;;;13.50;74.10;;;;;;5073600;28;20017;-60
2020/12/05 10:42:05;;;;;;;14.20;1.77;;;13.60;74.40;;;;;;5089612;22;20048;-58
2020/12/05 10:44:31;;;;;;;17.55;2.20;;;13.60;73.90;;;;;;5073575;28;20397;-58
2020/12/05 10:46:57;;;;;;;11.68;2.13;;;13.70;73.40;;;;;;5074082;28;20027;-58
2020/12/05 10:49:23;;;;;;;14.27;2.45;;;13.80;71.70;;;;;;5073962;28;20115;-58
2020/12/05 10:51:50;;;;;;;14.68;1.85;;;13.80;70.50;;;;;;5073417;28;20100;-58
2020/12/05 10:54:16;;;;;;;12.13;1.90;;;13.90;69.90;;;;;;5073423;28;20028;-58
2020/12/05 10:56:42;;;;;;;16.65;2.30;;;13.90;70.10;;;;;;5073248;28;20155;-58
2020/12/05 10:59:09;;;;;;;19.83;3.33;;;13.80;71.20;;;;;;5073335;28;20062;-58
2020/12/05 11:01:35;;;;;;;13.73;1.98;;;13.90;70.10;;;;;;5073514;28;20027;-58
2020/12/05 11:04:01;;;;;;;11.68;2.47;;;13.90;68.90;;;;;;5073502;28;20032;-58
2020/12/05 11:06:27;;;;;;;12.13;1.90;;;13.90;69.70;;;;;;5073116;28;20430;-57
2020/12/05 11:08:54;;;;;;;16.33;2.65;;;13.90;68.60;;;;;;5073087;28;20389;-58
2020/12/05 11:11:21;;;;;;;19.17;2.30;;;13.90;68.20;;;;;;5073209;28;20031;-57
2020/12/05 11:13:47;;;;;;;12.38;2.25;;;14.10;65.90;;;;;;5073320;28;20389;-58
2020/12/05 11:16:21;;;;;;;14.23;2.20;;;14.10;65.90;;;;;;5073084;28;20435;-58
2020/12/05 11:18:48;;;;;;;19.63;3.20;;;14.00;66.10;;;;;;5092005;28;20029;-58
2020/12/05 11:21:13;;;;;;;21.17;4.53;;;14.00;66.40;;;;;;5077499;28;20029;-57
2020/12/05 11:23:39;;;;;;;18.70;2.92;;;13.90;66.20;;;;;;5077391;28;20377;-58
2020/12/05 11:26:05;;;;;;;13.85;3.35;;;14.10;65.70;;;;;;5077102;28;20074;-57
2020/12/05 11:28:31;;;;;;;14.13;3.15;;;14.00;65.90;;;;;;5076954;28;20037;-57
2020/12/05 11:30:57;;;;;;;16.42;2.75;;;13.90;67.40;;;;;;5077060;28;20363;-57
2020/12/05 11:33:23;;;;;;;15.32;2.13;;;14.00;65.50;;;;;;5077208;28;20090;-57
2020/12/05 11:35:51;;;;;;;14.70;3.05;;;14.10;65.30;;;;;;5076969;28;20017;-56
2020/12/05 11:38:18;;;;;;;15.07;2.78;;;14.00;66.90;;;;;;5076717;28;20032;-57
2020/12/05 11:40:45;;;;;;;16.42;3.10;;;13.90;68.30;;;;;;5076667;28;20085;-54
2020/12/05 11:43:11;;;;;;;12.77;3.50;;;13.90;68.30;;;;;;5076792;28;20032;-56
2020/12/05 11:45:37;;;;;;;17.85;3.40;;;13.90;67.70;;;;;;5076632;28;20061;-57
2020/12/05 11:48:03;;;;;;;13.55;2.53;;;13.90;69.40;;;;;;5076697;28;20044;-58
2020/12/05 11:50:28;;;;;;;14.60;2.15;;;13.90;71.30;;;;;;5076614;28;20096;-56
2020/12/05 11:52:54;;;;;;;10.82;2.08;;;13.90;71.30;;;;;;5076541;28;20032;-57
2020/12/05 11:55:20;;;;;;;15.07;2.38;;;13.90;71.60;;;;;;5076597;28;20025;-57
2020/12/05 11:57:46;;;;;;;7.15;2.05;;;13.90;72.00;;;;;;5075042;28;20028;-55
2020/12/05 12:00:12;;;;;;;13.07;2.35;;;13.90;71.50;;;;;;5076349;28;20074;-57
2020/12/05 12:02:38;;;;;;;14.70;3.25;;;14.00;70.90;;;;;;5076450;28;20039;-57
2020/12/05 12:05:04;;;;;;;8.98;2.28;;;13.90;71.50;;;;;;5076171;28;20107;-57
2020/12/05 12:07:31;;;;;;;11.95;2.20;;;14.00;71.50;;;;;;5076140;28;20131;-55
2020/12/05 12:09:57;;;;;;;9.10;1.80;;;14.10;71.40;;;;;;5076172;28;20104;-58
2020/12/05 12:12:23;;;;;;;10.13;2.30;;;14.20;69.40;;;;;;5076233;28;20028;-58
2020/12/05 12:14:49;;;;;;;14.70;2.20;;;14.20;69.80;;;;;;5075064;28;20469;-53
2020/12/05 12:17:15;;;;;;;11.80;2.08;;;14.20;68.70;;;;;;5072668;28;20499;-58
2020/12/05 12:19:41;;;;;;;14.18;2.38;;;14.30;67.40;;;;;;5074523;28;20043;-57
2020/12/05 12:22:06;;;;;;;18.63;2.70;;;14.30;67.00;;;;;;5074107;28;20060;-52
2020/12/05 12:24:32;;;;;;;15.57;2.72;;;14.40;67.00;;;;;;5075036;28;20033;-57
2020/12/05 12:26:58;;;;;;;13.00;1.90;;;14.30;67.00;;;;;;5074698;28;20032;-58
2020/12/05 12:29:24;;;;;;;18.88;2.97;;;14.40;66.80;;;;;;5075009;28;20035;-57
2020/12/05 12:31:53;;;;;;;9.07;1.95;;;14.40;66.50;;;;;;5074863;28;20481;-58
2020/12/05 12:34:19;;;;;;;13.52;2.17;;;14.50;65.80;;;;;;5074993;28;20028;-55
2020/12/05 12:36:45;;;;;;;15.48;2.40;;;14.50;65.70;;;;;;5074292;28;20020;-56
2020/12/05 12:39:11;;;;;;;13.82;1.73;;;14.50;65.60;;;;;;5074359;28;20029;-57
2020/12/05 12:41:37;;;;;;;12.68;1.95;;;14.60;65.50;;;;;;5071442;28;20048;-54
2020/12/05 12:44:03;;;;;;;10.82;1.92;;;14.70;65.10;;;;;;5071231;28;20024;-55
2020/12/05 12:46:31;;;;;;;10.43;2.17;;;14.70;65.00;;;;;;5071020;28;20032;-56